sensor_id;sensor_type;location;lat;lon;timestamp;P1;durP1;ratioP1;P2;durP2;ratioP2
6878;SDS011;3478;51.462;7.338;2023-02-18T00:01:13;33.80;;;21.83;;
6878;SDS011;3478;51.462;7.338;2023-02-18T00:06:21;35.53;;;24.23;;
6878;SDS011;3478;51.462;7.338;2023-02-18T00:11:25;36.07;;;21.10;;
6878;SDS011;3478;51.462;7.338;2023-02-18T00:16:28;32.00;;;20.17;;
6878;SDS011;3478;51.462;7.338;2023-02-18T00:21:33;34.00;;;20.40;;
6878;SDS011;3478;51.462;7.338;2023-02-18T00:26:35;41.20;;;21.20;;
6878;SDS011;3478;51.462;7.338;2023-02-18T00:31:37;33.27;;;21.63;;
6878;SDS011;3478;51.462;7.338;2023-02-18T00:36:42;38.57;;;21.80;;
6878;SDS011;3478;51.462;7.338;2023-02-18T00:41:43;36.87;;;22.43;;
6878;SDS011;3478;51.462;7.338;2023-02-18T00:46:45;30.63;;;20.93;;
6878;SDS011;3478;51.462;7.338;2023-02-18T00:51:50;39.33;;;23.00;;
6878;SDS011;3478;51.462;7.338;2023-02-18T00:56:51;35.93;;;21.70;;
6878;SDS011;3478;51.462;7.338;2023-02-18T01:01:53;29.60;;;19.03;;
6878;SDS011;3478;51.462;7.338;2023-02-18T01:06:56;33.33;;;19.63;;
6878;SDS011;3478;51.462;7.338;2023-02-18T01:11:58;30.30;;;19.93;;
6878;SDS011;3478;51.462;7.338;2023-02-18T01:17:00;31.47;;;18.00;;
6878;SDS011;3478;51.462;7.338;2023-02-18T01:22:03;27.83;;;17.90;;
6878;SDS011;3478;51.462;7.338;2023-02-18T01:27:05;25.77;;;16.27;;
6878;SDS011;3478;51.462;7.338;2023-02-18T01:32:07;29.17;;;17.97;;
6878;SDS011;3478;51.462;7.338;2023-02-18T01:37:11;32.47;;;19.13;;
6878;SDS011;3478;51.462;7.338;2023-02-18T01:42:16;31.67;;;16.97;;
6878;SDS011;3478;51.462;7.338;2023-02-18T01:47:19;26.20;;;18.27;;
6878;SDS011;3478;51.462;7.338;2023-02-18T01:52:23;30.50;;;18.43;;
6878;SDS011;3478;51.462;7.338;2023-02-18T01:57:28;29.23;;;18.00;;
6878;SDS011;3478;51.462;7.338;2023-02-18T02:02:34;26.40;;;17.90;;
6878;SDS011;3478;51.462;7.338;2023-02-18T02:07:40;28.17;;;18.07;;
6878;SDS011;3478;51.462;7.338;2023-02-18T02:12:47;21.23;;;15.07;;
6878;SDS011;3478;51.462;7.338;2023-02-18T02:18:04;25.50;;;16.43;;
6878;SDS011;3478;51.462;7.338;2023-02-18T02:23:27;24.00;;;13.80;;
6878;SDS011;3478;51.462;7.338;2023-02-18T02:28:51;21.20;;;12.97;;
6878;SDS011;3478;51.462;7.338;2023-02-18T02:34:28;24.77;;;15.10;;
6878;SDS011;3478;51.462;7.338;2023-02-18T02:39:46;17.33;;;12.40;;
6878;SDS011;3478;51.462;7.338;2023-02-18T02:44:59;22.57;;;12.30;;
6878;SDS011;3478;51.462;7.338;2023-02-18T02:50:09;16.77;;;12.00;;
6878;SDS011;3478;51.462;7.338;2023-02-18T02:55:14;15.03;;;10.60;;
6878;SDS011;3478;51.462;7.338;2023-02-18T03:00:17;13.37;;;9.93;;
6878;SDS011;3478;51.462;7.338;2023-02-18T03:05:25;14.53;;;9.50;;
6878;SDS011;3478;51.462;7.338;2023-02-18T03:10:35;14.70;;;9.80;;
6878;SDS011;3478;51.462;7.338;2023-02-18T03:15:56;15.83;;;10.43;;
6878;SDS011;3478;51.462;7.338;2023-02-18T03:21:05;10.53;;;8.77;;
6878;SDS011;3478;51.462;7.338;2023-02-18T03:26:10;11.40;;;8.97;;
6878;SDS011;3478;51.462;7.338;2023-02-18T03:31:15;15.77;;;9.70;;
6878;SDS011;3478;51.462;7.338;2023-02-18T03:36:22;12.47;;;10.30;;
6878;SDS011;3478;51.462;7.338;2023-02-18T03:41:25;12.87;;;10.20;;
6878;SDS011;3478;51.462;7.338;2023-02-18T03:46:27;11.70;;;9.80;;
6878;SDS011;3478;51.462;7.338;2023-02-18T03:51:31;14.00;;;9.90;;
6878;SDS011;3478;51.462;7.338;2023-02-18T03:56:34;11.63;;;8.70;;
6878;SDS011;3478;51.462;7.338;2023-02-18T04:01:37;17.53;;;9.33;;
6878;SDS011;3478;51.462;7.338;2023-02-18T04:06:40;16.03;;;9.80;;
6878;SDS011;3478;51.462;7.338;2023-02-18T04:11:42;14.53;;;9.10;;
6878;SDS011;3478;51.462;7.338;2023-02-18T04:16:44;19.03;;;9.57;;
6878;SDS011;3478;51.462;7.338;2023-02-18T04:21:47;16.90;;;9.30;;
6878;SDS011;3478;51.462;7.338;2023-02-18T04:26:49;14.40;;;9.47;;
6878;SDS011;3478;51.462;7.338;2023-02-18T04:31:51;22.37;;;10.67;;
6878;SDS011;3478;51.462;7.338;2023-02-18T04:36:54;16.87;;;9.67;;
6878;SDS011;3478;51.462;7.338;2023-02-18T04:41:56;14.80;;;8.47;;
6878;SDS011;3478;51.462;7.338;2023-02-18T04:46:58;16.30;;;8.60;;
6878;SDS011;3478;51.462;7.338;2023-02-18T04:52:01;11.53;;;5.90;;
6878;SDS011;3478;51.462;7.338;2023-02-18T04:57:03;8.37;;;5.83;;
6878;SDS011;3478;51.462;7.338;2023-02-18T05:02:05;7.47;;;5.50;;
6878;SDS011;3478;51.462;7.338;2023-02-18T05:07:08;4.93;;;4.40;;
6878;SDS011;3478;51.462;7.338;2023-02-18T05:12:10;4.27;;;3.80;;
6878;SDS011;3478;51.462;7.338;2023-02-18T05:17:12;3.03;;;2.60;;
6878;SDS011;3478;51.462;7.338;2023-02-18T05:22:15;2.73;;;2.53;;
6878;SDS011;3478;51.462;7.338;2023-02-18T05:27:17;1.93;;;1.30;;
6878;SDS011;3478;51.462;7.338;2023-02-18T05:32:19;1.70;;;0.93;;
6878;SDS011;3478;51.462;7.338;2023-02-18T05:37:22;1.20;;;0.80;;
6878;SDS011;3478;51.462;7.338;2023-02-18T05:42:23;2.03;;;0.70;;
6878;SDS011;3478;51.462;7.338;2023-02-18T05:47:25;2.03;;;0.80;;
6878;SDS011;3478;51.462;7.338;2023-02-18T05:52:28;1.03;;;0.77;;
6878;SDS011;3478;51.462;7.338;2023-02-18T05:57:30;1.97;;;0.73;;
6878;SDS011;3478;51.462;7.338;2023-02-18T06:02:32;0.90;;;0.70;;
6878;SDS011;3478;51.462;7.338;2023-02-18T06:07:35;1.63;;;0.93;;
6878;SDS011;3478;51.462;7.338;2023-02-18T06:12:37;1.20;;;0.70;;
6878;SDS011;3478;51.462;7.338;2023-02-18T06:17:39;0.97;;;0.80;;
6878;SDS011;3478;51.462;7.338;2023-02-18T06:22:42;1.13;;;0.70;;
6878;SDS011;3478;51.462;7.338;2023-02-18T06:27:44;1.40;;;1.00;;
6878;SDS011;3478;51.462;7.338;2023-02-18T06:32:46;1.10;;;1.00;;
6878;SDS011;3478;51.462;7.338;2023-02-18T06:37:49;1.93;;;1.17;;
6878;SDS011;3478;51.462;7.338;2023-02-18T06:42:51;1.17;;;1.07;;
6878;SDS011;3478;51.462;7.338;2023-02-18T06:47:53;4.17;;;1.53;;
6878;SDS011;3478;51.462;7.338;2023-02-18T06:52:56;2.17;;;1.40;;
6878;SDS011;3478;51.462;7.338;2023-02-18T06:57:58;1.67;;;1.57;;
6878;SDS011;3478;51.462;7.338;2023-02-18T07:03:00;2.00;;;1.90;;
6878;SDS011;3478;51.462;7.338;2023-02-18T07:08:04;1.83;;;1.73;;
6878;SDS011;3478;51.462;7.338;2023-02-18T07:13:05;2.00;;;1.30;;
6878;SDS011;3478;51.462;7.338;2023-02-18T07:18:07;2.50;;;2.30;;
6878;SDS011;3478;51.462;7.338;2023-02-18T07:23:10;2.73;;;2.20;;
6878;SDS011;3478;51.462;7.338;2023-02-18T07:28:12;3.03;;;2.83;;
6878;SDS011;3478;51.462;7.338;2023-02-18T07:33:14;3.30;;;3.00;;
6878;SDS011;3478;51.462;7.338;2023-02-18T07:38:17;2.60;;;2.17;;
6878;SDS011;3478;51.462;7.338;2023-02-18T07:43:19;2.30;;;2.10;;
6878;SDS011;3478;51.462;7.338;2023-02-18T07:48:21;2.47;;;2.27;;
6878;SDS011;3478;51.462;7.338;2023-02-18T07:53:25;1.90;;;1.80;;
6878;SDS011;3478;51.462;7.338;2023-02-18T07:58:27;1.40;;;1.30;;
6878;SDS011;3478;51.462;7.338;2023-02-18T08:03:31;1.17;;;0.83;;
6878;SDS011;3478;51.462;7.338;2023-02-18T08:08:35;1.27;;;0.90;;
6878;SDS011;3478;51.462;7.338;2023-02-18T08:13:36;1.00;;;0.70;;
6878;SDS011;3478;51.462;7.338;2023-02-18T08:18:38;1.10;;;0.80;;
6878;SDS011;3478;51.462;7.338;2023-02-18T08:23:41;1.47;;;0.70;;
6878;SDS011;3478;51.462;7.338;2023-02-18T08:28:44;0.83;;;0.70;;
6878;SDS011;3478;51.462;7.338;2023-02-18T08:33:47;0.63;;;0.53;;
6878;SDS011;3478;51.462;7.338;2023-02-18T08:38:50;0.80;;;0.67;;
6878;SDS011;3478;51.462;7.338;2023-02-18T08:43:52;0.60;;;0.40;;
6878;SDS011;3478;51.462;7.338;2023-02-18T08:48:54;1.47;;;0.40;;
6878;SDS011;3478;51.462;7.338;2023-02-18T08:53:57;1.47;;;0.93;;
6878;SDS011;3478;51.462;7.338;2023-02-18T08:58:59;1.10;;;0.60;;
6878;SDS011;3478;51.462;7.338;2023-02-18T09:04:01;1.37;;;0.60;;
6878;SDS011;3478;51.462;7.338;2023-02-18T09:09:04;3.93;;;1.50;;
6878;SDS011;3478;51.462;7.338;2023-02-18T09:14:06;5.50;;;2.27;;
6878;SDS011;3478;51.462;7.338;2023-02-18T09:19:08;4.00;;;1.80;;
6878;SDS011;3478;51.462;7.338;2023-02-18T09:24:12;10.77;;;1.43;;
6878;SDS011;3478;51.462;7.338;2023-02-18T09:29:13;6.87;;;2.07;;
6878;SDS011;3478;51.462;7.338;2023-02-18T09:34:15;4.87;;;1.57;;
6878;SDS011;3478;51.462;7.338;2023-02-18T09:39:18;5.37;;;1.40;;
6878;SDS011;3478;51.462;7.338;2023-02-18T09:44:22;4.20;;;1.60;;
6878;SDS011;3478;51.462;7.338;2023-02-18T09:49:27;6.03;;;1.33;;
6878;SDS011;3478;51.462;7.338;2023-02-18T09:54:34;6.30;;;1.97;;
6878;SDS011;3478;51.462;7.338;2023-02-18T09:59:35;6.80;;;3.03;;
6878;SDS011;3478;51.462;7.338;2023-02-18T10:04:39;2.70;;;2.40;;
6878;SDS011;3478;51.462;7.338;2023-02-18T10:09:46;4.80;;;1.97;;
6878;SDS011;3478;51.462;7.338;2023-02-18T10:14:51;8.07;;;2.60;;
6878;SDS011;3478;51.462;7.338;2023-02-18T10:19:54;7.00;;;3.03;;
6878;SDS011;3478;51.462;7.338;2023-02-18T10:25:00;7.00;;;3.17;;
6878;SDS011;3478;51.462;7.338;2023-02-18T10:30:15;13.70;;;2.67;;
6878;SDS011;3478;51.462;7.338;2023-02-18T10:35:23;10.10;;;3.10;;
6878;SDS011;3478;51.462;7.338;2023-02-18T10:40:34;10.77;;;3.80;;
6878;SDS011;3478;51.462;7.338;2023-02-18T10:45:49;11.50;;;3.27;;
6878;SDS011;3478;51.462;7.338;2023-02-18T10:50:58;11.90;;;3.20;;
6878;SDS011;3478;51.462;7.338;2023-02-18T10:56:04;7.80;;;2.57;;
6878;SDS011;3478;51.462;7.338;2023-02-18T11:01:12;8.23;;;3.70;;
6878;SDS011;3478;51.462;7.338;2023-02-18T11:06:19;7.57;;;2.87;;
6878;SDS011;3478;51.462;7.338;2023-02-18T11:11:27;11.27;;;3.63;;
6878;SDS011;3478;51.462;7.338;2023-02-18T11:16:36;7.57;;;4.10;;
6878;SDS011;3478;51.462;7.338;2023-02-18T11:21:39;7.23;;;3.27;;
6878;SDS011;3478;51.462;7.338;2023-02-18T11:26:43;10.07;;;3.30;;
6878;SDS011;3478;51.462;7.338;2023-02-18T11:31:45;5.17;;;2.90;;
6878;SDS011;3478;51.462;7.338;2023-02-18T11:36:49;5.37;;;2.70;;
6878;SDS011;3478;51.462;7.338;2023-02-18T11:41:54;7.80;;;2.37;;
6878;SDS011;3478;51.462;7.338;2023-02-18T11:46:59;3.97;;;2.97;;
6878;SDS011;3478;51.462;7.338;2023-02-18T11:52:03;6.10;;;2.00;;
6878;SDS011;3478;51.462;7.338;2023-02-18T11:57:21;3.50;;;2.00;;
6878;SDS011;3478;51.462;7.338;2023-02-18T12:02:27;2.43;;;1.70;;
6878;SDS011;3478;51.462;7.338;2023-02-18T12:07:38;3.30;;;3.00;;
6878;SDS011;3478;51.462;7.338;2023-02-18T12:12:45;3.33;;;2.20;;
6878;SDS011;3478;51.462;7.338;2023-02-18T12:23:23;3.73;;;2.87;;
6878;SDS011;3478;51.462;7.338;2023-02-18T12:28:35;5.27;;;2.23;;
6878;SDS011;3478;51.462;7.338;2023-02-18T12:33:55;2.10;;;1.90;;
6878;SDS011;3478;51.462;7.338;2023-02-18T12:39:10;2.30;;;2.10;;
6878;SDS011;3478;51.462;7.338;2023-02-18T12:44:32;5.00;;;2.50;;
6878;SDS011;3478;51.462;7.338;2023-02-18T12:49:46;2.47;;;2.20;;
6878;SDS011;3478;51.462;7.338;2023-02-18T12:55:18;3.53;;;2.20;;
6878;SDS011;3478;51.462;7.338;2023-02-18T13:00:46;4.33;;;3.70;;
6878;SDS011;3478;51.462;7.338;2023-02-18T13:06:13;5.50;;;4.30;;
6878;SDS011;3478;51.462;7.338;2023-02-18T13:11:29;6.43;;;2.87;;
6878;SDS011;3478;51.462;7.338;2023-02-18T13:16:40;4.10;;;3.70;;
6878;SDS011;3478;51.462;7.338;2023-02-18T13:21:46;7.27;;;4.87;;
6878;SDS011;3478;51.462;7.338;2023-02-18T13:26:51;3.63;;;3.33;;
6878;SDS011;3478;51.462;7.338;2023-02-18T13:32:05;5.87;;;4.23;;
6878;SDS011;3478;51.462;7.338;2023-02-18T13:37:15;4.83;;;4.10;;
6878;SDS011;3478;51.462;7.338;2023-02-18T13:42:25;4.10;;;3.70;;
6878;SDS011;3478;51.462;7.338;2023-02-18T13:47:39;10.43;;;4.37;;
6878;SDS011;3478;51.462;7.338;2023-02-18T13:52:43;4.00;;;3.47;;
6878;SDS011;3478;51.462;7.338;2023-02-18T13:57:45;4.63;;;4.23;;
6878;SDS011;3478;51.462;7.338;2023-02-18T14:02:56;6.03;;;4.57;;
6878;SDS011;3478;51.462;7.338;2023-02-18T14:08:05;7.80;;;6.10;;
6878;SDS011;3478;51.462;7.338;2023-02-18T14:19:00;9.90;;;7.50;;
6878;SDS011;3478;51.462;7.338;2023-02-18T14:24:03;13.27;;;7.20;;
6878;SDS011;3478;51.462;7.338;2023-02-18T14:29:09;11.07;;;7.90;;
6878;SDS011;3478;51.462;7.338;2023-02-18T14:39:53;14.00;;;9.43;;
6878;SDS011;3478;51.462;7.338;2023-02-18T14:45:07;20.00;;;11.50;;
6878;SDS011;3478;51.462;7.338;2023-02-18T14:50:16;17.23;;;10.30;;
6878;SDS011;3478;51.462;7.338;2023-02-18T14:55:22;21.60;;;11.63;;
6878;SDS011;3478;51.462;7.338;2023-02-18T15:00:27;15.17;;;11.80;;
6878;SDS011;3478;51.462;7.338;2023-02-18T15:05:36;18.20;;;11.60;;
6878;SDS011;3478;51.462;7.338;2023-02-18T15:10:42;20.03;;;12.70;;
6878;SDS011;3478;51.462;7.338;2023-02-18T15:15:47;18.40;;;12.27;;
6878;SDS011;3478;51.462;7.338;2023-02-18T15:20:51;22.87;;;12.60;;
6878;SDS011;3478;51.462;7.338;2023-02-18T15:25:55;20.67;;;13.50;;
6878;SDS011;3478;51.462;7.338;2023-02-18T15:30:57;22.33;;;13.07;;
6878;SDS011;3478;51.462;7.338;2023-02-18T15:36:00;20.30;;;11.93;;
6878;SDS011;3478;51.462;7.338;2023-02-18T15:41:04;19.83;;;12.90;;
6878;SDS011;3478;51.462;7.338;2023-02-18T15:46:11;18.50;;;11.87;;
6878;SDS011;3478;51.462;7.338;2023-02-18T15:51:16;19.23;;;10.73;;
6878;SDS011;3478;51.462;7.338;2023-02-18T15:56:23;14.80;;;9.93;;
6878;SDS011;3478;51.462;7.338;2023-02-18T16:01:30;18.33;;;12.10;;
6878;SDS011;3478;51.462;7.338;2023-02-18T16:06:34;18.90;;;12.27;;
6878;SDS011;3478;51.462;7.338;2023-02-18T16:11:40;17.83;;;11.87;;
6878;SDS011;3478;51.462;7.338;2023-02-18T16:16:44;21.67;;;14.07;;
6878;SDS011;3478;51.462;7.338;2023-02-18T16:22:06;26.70;;;17.13;;
6878;SDS011;3478;51.462;7.338;2023-02-18T16:27:34;38.97;;;19.60;;
6878;SDS011;3478;51.462;7.338;2023-02-18T16:32:36;32.93;;;18.30;;
6878;SDS011;3478;51.462;7.338;2023-02-18T16:37:38;35.03;;;20.00;;
6878;SDS011;3478;51.462;7.338;2023-02-18T16:42:43;35.53;;;20.90;;
6878;SDS011;3478;51.462;7.338;2023-02-18T16:47:46;34.80;;;19.87;;
6878;SDS011;3478;51.462;7.338;2023-02-18T16:52:49;34.13;;;20.30;;
6878;SDS011;3478;51.462;7.338;2023-02-18T16:57:52;29.77;;;18.20;;
6878;SDS011;3478;51.462;7.338;2023-02-18T17:02:55;30.37;;;18.20;;
6878;SDS011;3478;51.462;7.338;2023-02-18T17:07:59;21.47;;;14.50;;
6878;SDS011;3478;51.462;7.338;2023-02-18T17:13:15;27.13;;;16.73;;
6878;SDS011;3478;51.462;7.338;2023-02-18T17:18:18;23.00;;;14.70;;
6878;SDS011;3478;51.462;7.338;2023-02-18T17:23:21;18.97;;;13.30;;
6878;SDS011;3478;51.462;7.338;2023-02-18T17:28:25;20.80;;;12.60;;
6878;SDS011;3478;51.462;7.338;2023-02-18T17:33:27;24.73;;;15.50;;
6878;SDS011;3478;51.462;7.338;2023-02-18T17:38:29;20.37;;;14.90;;
6878;SDS011;3478;51.462;7.338;2023-02-18T17:43:33;21.20;;;14.97;;
6878;SDS011;3478;51.462;7.338;2023-02-18T17:48:36;18.70;;;13.57;;
6878;SDS011;3478;51.462;7.338;2023-02-18T17:53:37;18.27;;;12.50;;
6878;SDS011;3478;51.462;7.338;2023-02-18T17:58:41;23.30;;;14.13;;
6878;SDS011;3478;51.462;7.338;2023-02-18T18:03:43;23.93;;;14.40;;
6878;SDS011;3478;51.462;7.338;2023-02-18T18:08:44;21.13;;;13.83;;
6878;SDS011;3478;51.462;7.338;2023-02-18T18:13:48;25.90;;;16.60;;
6878;SDS011;3478;51.462;7.338;2023-02-18T18:18:51;20.77;;;13.47;;
6878;SDS011;3478;51.462;7.338;2023-02-18T18:23:53;28.03;;;13.63;;
6878;SDS011;3478;51.462;7.338;2023-02-18T18:28:56;23.20;;;13.60;;
6878;SDS011;3478;51.462;7.338;2023-02-18T18:33:58;20.90;;;15.10;;
6878;SDS011;3478;51.462;7.338;2023-02-18T18:39:01;21.43;;;13.67;;
6878;SDS011;3478;51.462;7.338;2023-02-18T18:44:04;23.60;;;13.67;;
6878;SDS011;3478;51.462;7.338;2023-02-18T18:49:06;17.37;;;12.90;;
6878;SDS011;3478;51.462;7.338;2023-02-18T18:54:08;17.27;;;12.17;;
6878;SDS011;3478;51.462;7.338;2023-02-18T18:59:13;20.70;;;12.37;;
6878;SDS011;3478;51.462;7.338;2023-02-18T19:04:15;16.63;;;11.97;;
6878;SDS011;3478;51.462;7.338;2023-02-18T19:09:18;18.10;;;12.57;;
6878;SDS011;3478;51.462;7.338;2023-02-18T19:14:21;17.10;;;12.40;;
6878;SDS011;3478;51.462;7.338;2023-02-18T19:19:23;15.63;;;11.77;;
6878;SDS011;3478;51.462;7.338;2023-02-18T19:24:25;15.20;;;12.10;;
6878;SDS011;3478;51.462;7.338;2023-02-18T19:29:28;20.77;;;12.63;;
6878;SDS011;3478;51.462;7.338;2023-02-18T19:34:29;17.47;;;12.20;;
6878;SDS011;3478;51.462;7.338;2023-02-18T19:39:33;16.03;;;11.17;;
6878;SDS011;3478;51.462;7.338;2023-02-18T19:44:36;13.27;;;10.77;;
6878;SDS011;3478;51.462;7.338;2023-02-18T19:49:38;12.80;;;9.53;;
6878;SDS011;3478;51.462;7.338;2023-02-18T19:54:40;13.60;;;9.30;;
6878;SDS011;3478;51.462;7.338;2023-02-18T19:59:43;17.43;;;11.60;;
6878;SDS011;3478;51.462;7.338;2023-02-18T20:04:45;20.60;;;14.93;;
6878;SDS011;3478;51.462;7.338;2023-02-18T20:09:49;22.70;;;14.30;;
6878;SDS011;3478;51.462;7.338;2023-02-18T20:14:53;20.53;;;15.60;;
6878;SDS011;3478;51.462;7.338;2023-02-18T20:19:55;22.10;;;15.37;;
6878;SDS011;3478;51.462;7.338;2023-02-18T20:24:56;21.77;;;14.63;;
6878;SDS011;3478;51.462;7.338;2023-02-18T20:30:00;21.80;;;14.07;;
6878;SDS011;3478;51.462;7.338;2023-02-18T20:35:03;22.87;;;14.60;;
6878;SDS011;3478;51.462;7.338;2023-02-18T20:40:06;18.07;;;14.13;;
6878;SDS011;3478;51.462;7.338;2023-02-18T20:45:09;22.97;;;14.43;;
6878;SDS011;3478;51.462;7.338;2023-02-18T20:50:11;21.87;;;14.97;;
6878;SDS011;3478;51.462;7.338;2023-02-18T20:55:13;20.67;;;14.30;;
6878;SDS011;3478;51.462;7.338;2023-02-18T21:00:16;22.70;;;13.27;;
6878;SDS011;3478;51.462;7.338;2023-02-18T21:05:18;16.50;;;13.33;;
6878;SDS011;3478;51.462;7.338;2023-02-18T21:10:20;17.13;;;13.67;;
6878;SDS011;3478;51.462;7.338;2023-02-18T21:15:24;20.70;;;12.80;;
6878;SDS011;3478;51.462;7.338;2023-02-18T21:20:27;16.00;;;13.03;;
6878;SDS011;3478;51.462;7.338;2023-02-18T21:25:29;19.13;;;12.87;;
6878;SDS011;3478;51.462;7.338;2023-02-18T21:30:33;26.10;;;14.63;;
6878;SDS011;3478;51.462;7.338;2023-02-18T21:35:37;22.70;;;14.23;;
6878;SDS011;3478;51.462;7.338;2023-02-18T21:40:40;23.00;;;15.23;;
6878;SDS011;3478;51.462;7.338;2023-02-18T21:45:44;19.93;;;13.90;;
6878;SDS011;3478;51.462;7.338;2023-02-18T21:50:46;22.20;;;13.60;;
6878;SDS011;3478;51.462;7.338;2023-02-18T21:55:48;20.13;;;13.43;;
6878;SDS011;3478;51.462;7.338;2023-02-18T22:01:00;24.07;;;13.10;;
6878;SDS011;3478;51.462;7.338;2023-02-18T22:06:02;19.47;;;12.37;;
6878;SDS011;3478;51.462;7.338;2023-02-18T22:11:05;19.93;;;13.40;;
6878;SDS011;3478;51.462;7.338;2023-02-18T22:16:08;16.80;;;11.80;;
6878;SDS011;3478;51.462;7.338;2023-02-18T22:21:10;19.20;;;12.90;;
6878;SDS011;3478;51.462;7.338;2023-02-18T22:26:12;18.63;;;11.97;;
6878;SDS011;3478;51.462;7.338;2023-02-18T22:31:15;22.53;;;13.27;;
6878;SDS011;3478;51.462;7.338;2023-02-18T22:36:18;18.17;;;12.23;;
6878;SDS011;3478;51.462;7.338;2023-02-18T22:41:21;18.07;;;12.33;;
6878;SDS011;3478;51.462;7.338;2023-02-18T22:46:25;17.97;;;11.40;;
6878;SDS011;3478;51.462;7.338;2023-02-18T22:51:29;17.83;;;12.70;;
6878;SDS011;3478;51.462;7.338;2023-02-18T22:56:32;21.27;;;13.83;;
6878;SDS011;3478;51.462;7.338;2023-02-18T23:01:36;19.47;;;12.77;;
6878;SDS011;3478;51.462;7.338;2023-02-18T23:06:41;18.70;;;14.27;;
6878;SDS011;3478;51.462;7.338;2023-02-18T23:11:44;22.30;;;13.40;;
6878;SDS011;3478;51.462;7.338;2023-02-18T23:16:48;17.13;;;12.27;;
6878;SDS011;3478;51.462;7.338;2023-02-18T23:22:09;17.70;;;13.07;;
6878;SDS011;3478;51.462;7.338;2023-02-18T23:27:13;17.90;;;11.90;;
6878;SDS011;3478;51.462;7.338;2023-02-18T23:32:17;17.73;;;12.37;;
6878;SDS011;3478;51.462;7.338;2023-02-18T23:37:19;14.10;;;10.57;;
6878;SDS011;3478;51.462;7.338;2023-02-18T23:42:42;15.97;;;11.03;;
6878;SDS011;3478;51.462;7.338;2023-02-18T23:47:45;14.17;;;11.30;;
6878;SDS011;3478;51.462;7.338;2023-02-18T23:52:47;15.00;;;10.53;;
6878;SDS011;3478;51.462;7.338;2023-02-18T23:57:49;18.10;;;12.47;;
